Time;durP1;ratioP1;P1;durP2;ratioP2;P2;SDS_P1;SDS_P2;PMS_P1;PMS_P2;Temp;Humidity;BMP_temperature;BMP_pressure;BME280_temperature;BME280_humidity;BME280_pressure;Samples;Min_cycle;Max_cycle;Signal;HPM_P1;HPM_P2
2021/10/01 17:08:55;;;;;;;6.10;3.50;;;19.00;69.40;;;;;;5357331;23;20304;-80
2021/10/01 17:11:20;;;;;;;5.68;3.42;;;19.00;69.90;;;;;;4861309;29;20172;-80
2021/10/01 17:13:48;;;;;;;8.43;3.70;;;19.00;69.20;;;;;;4861490;29;20172;-80
2021/10/01 17:16:14;;;;;;;3.75;3.10;;;19.00;69.10;;;;;;4845000;29;20196;-81
2021/10/01 17:18:39;;;;;;;4.45;3.63;;;19.00;69.10;;;;;;4860101;29;20195;-80
2021/10/01 17:21:05;;;;;;;4.30;3.03;;;19.00;69.00;;;;;;4859980;29;20533;-80
2021/10/01 17:23:31;;;;;;;5.22;2.75;;;19.00;69.20;;;;;;4844125;29;20192;-81
2021/10/01 17:25:56;;;;;;;4.93;3.20;;;19.00;68.90;;;;;;4878630;29;20171;-80
2021/10/01 17:28:24;;;;;;;7.43;3.38;;;19.00;69.00;;;;;;4880086;29;20582;-80
2021/10/01 17:30:51;;;;;;;6.07;3.22;;;19.00;69.00;;;;;;4875522;29;20173;-80
2021/10/01 17:33:16;;;;;;;5.18;3.08;;;19.00;69.80;;;;;;4859859;29;20165;-80
2021/10/01 17:35:42;;;;;;;5.95;3.38;;;19.00;69.20;;;;;;4861268;29;20624;-80
2021/10/01 17:38:09;;;;;;;6.20;3.33;;;19.00;69.40;;;;;;4861009;29;20604;-80
2021/10/01 17:40:34;;;;;;;4.60;3.38;;;19.00;68.60;;;;;;4868772;29;20180;-80
2021/10/01 17:43:00;;;;;;;4.20;3.33;;;19.00;68.20;;;;;;4879777;29;20277;-81
2021/10/01 17:45:26;;;;;;;6.53;3.17;;;19.00;68.90;;;;;;4879391;29;20239;-80
2021/10/01 17:47:52;;;;;;;7.70;3.30;;;19.00;68.90;;;;;;4879731;29;20267;-81
2021/10/01 17:50:19;;;;;;;8.30;3.25;;;19.00;68.70;;;;;;4879665;29;20175;-80
2021/10/01 17:52:45;;;;;;;3.28;2.97;;;19.00;69.30;;;;;;4878085;29;20825;-80
2021/10/01 17:55:10;;;;;;;8.90;3.40;;;19.00;68.70;;;;;;4879445;29;20163;-81
2021/10/01 17:57:36;;;;;;;4.45;2.95;;;19.00;69.20;;;;;;4878238;29;20210;-81
2021/10/01 18:00:03;;;;;;;4.32;3.35;;;19.00;68.90;;;;;;4878403;29;20251;-81
2021/10/01 18:02:28;;;;;;;4.15;3.13;;;19.00;69.20;;;;;;4879357;29;20228;-80
2021/10/01 18:04:54;;;;;;;4.15;3.38;;;19.00;69.00;;;;;;4878415;29;20604;-81
2021/10/01 18:07:20;;;;;;;4.43;3.22;;;19.00;68.90;;;;;;4862623;29;20164;-81
2021/10/01 18:09:46;;;;;;;3.88;3.25;;;19.00;68.40;;;;;;4878065;29;20216;-82
2021/10/01 18:12:11;;;;;;;5.22;3.13;;;19.00;68.80;;;;;;4878080;29;20168;-80
2021/10/01 18:14:37;;;;;;;5.80;3.22;;;19.00;68.90;;;;;;4879283;29;20635;-81
2021/10/01 18:17:04;;;;;;;4.90;3.42;;;19.00;69.30;;;;;;4877917;29;20264;-81
2021/10/01 18:19:30;;;;;;;3.60;3.00;;;19.00;69.10;;;;;;4879532;29;20207;-81
2021/10/01 18:21:56;;;;;;;6.35;3.60;;;19.00;68.90;;;;;;4879863;29;20172;-80
2021/10/01 18:24:22;;;;;;;4.50;3.47;;;19.00;69.20;;;;;;4879270;29;20239;-81
2021/10/01 18:26:48;;;;;;;5.30;3.30;;;19.00;70.00;;;;;;4879824;29;20251;-81
2021/10/01 18:29:14;;;;;;;5.03;3.65;;;19.00;70.50;;;;;;4879339;29;20165;-82
2021/10/01 18:31:39;;;;;;;4.28;3.45;;;18.90;70.20;;;;;;4863090;29;20156;-82
2021/10/01 18:34:08;;;;;;;5.47;3.67;;;19.00;70.00;;;;;;4880541;29;20183;-83
2021/10/01 18:36:34;;;;;;;3.72;3.05;;;18.90;70.80;;;;;;4851202;29;20659;-82
2021/10/01 18:38:59;;;;;;;7.18;3.58;;;18.90;69.90;;;;;;4881527;29;20288;-82
2021/10/01 18:41:25;;;;;;;5.00;3.50;;;18.90;70.60;;;;;;4882292;29;20156;-81
2021/10/01 18:43:51;;;;;;;4.90;3.60;;;18.90;70.10;;;;;;4882425;29;20160;-81
2021/10/01 18:46:17;;;;;;;5.18;3.95;;;18.90;71.10;;;;;;4881222;29;20172;-81
2021/10/01 18:48:43;;;;;;;4.88;3.40;;;18.90;70.80;;;;;;4867082;29;20161;-81
2021/10/01 18:51:08;;;;;;;5.90;3.35;;;18.90;71.20;;;;;;4881871;29;20588;-79
2021/10/01 18:53:34;;;;;;;5.45;3.50;;;18.90;71.80;;;;;;4884387;29;20171;-79
2021/10/01 18:56:01;;;;;;;4.55;3.58;;;18.90;72.00;;;;;;4881358;29;20258;-79
2021/10/01 18:58:28;;;;;;;5.32;3.70;;;18.80;71.90;;;;;;4882279;29;20200;-80
2021/10/01 19:00:58;;;;;;;6.63;3.83;;;18.80;72.10;;;;;;4850876;29;20606;-79
2021/10/01 19:03:24;;;;;;;5.82;3.28;;;18.80;72.50;;;;;;4865865;29;20679;-78
2021/10/01 19:05:57;;;;;;;5.40;3.55;;;18.80;71.30;;;;;;4865907;29;20168;-79
2021/10/01 19:08:28;;;;;;;6.38;3.55;;;18.80;72.40;;;;;;4882488;29;20238;-79
2021/10/01 21:41:39;;;;;;;4.05;3.65;;;18.50;77.50;;;;;;4898271;29;20282;-79
